createdAt,value
2018-04-10T00:00:07.470Z,100128.23
2018-04-10T00:02:36.373Z,100129.61
2018-04-10T00:05:05.560Z,100124.84
2018-04-10T00:07:34.982Z,100127.09
2018-04-10T00:10:09.060Z,100123.86
2018-04-10T00:12:39.213Z,100120.86
2018-04-10T00:15:07.617Z,100114.61
2018-04-10T00:17:37.468Z,100114.93
2018-04-10T00:20:06.218Z,100121.81
2018-04-10T00:22:34.801Z,100115.90
2018-04-10T00:25:03.145Z,100113.65
2018-04-10T00:27:31.475Z,100111.93
2018-04-10T00:30:00.465Z,100109.48
2018-04-10T00:32:29.142Z,100105.80
2018-04-10T00:34:57.845Z,100106.36
2018-04-10T00:37:26.585Z,100103.52
2018-04-10T00:39:54.929Z,100109.61
2018-04-10T00:42:23.565Z,100096.56
2018-04-10T00:44:51.827Z,100099.56
2018-04-10T00:47:20.333Z,100094.54
2018-04-10T00:49:52.641Z,100098.77
2018-04-10T00:52:21.381Z,100099.25
2018-04-10T00:54:49.816Z,100097.09
2018-04-10T00:57:18.237Z,100102.14
2018-04-10T00:59:47.139Z,100103.41
2018-04-10T01:02:15.981Z,100089.40
2018-04-10T01:04:44.333Z,100094.34
2018-04-10T01:07:13.137Z,100087.34
2018-04-10T01:09:42.005Z,100085.91
2018-04-10T01:12:10.790Z,100088.33
2018-04-10T01:14:39.569Z,100083.04
2018-04-10T01:17:08.382Z,100086.21
2018-04-10T01:19:37.501Z,100081.70
2018-04-10T01:22:05.987Z,100084.34
2018-04-10T01:24:34.617Z,100078.98
2018-04-10T01:27:03.538Z,100080.13
2018-04-10T01:29:33.150Z,100078.28
2018-04-10T01:32:03.035Z,100082.81
2018-04-10T01:34:31.293Z,100079.41
2018-04-10T01:37:00.432Z,100077.48
2018-04-10T01:39:29.086Z,100078.19
2018-04-10T01:41:57.783Z,100071.54
2018-04-10T01:44:26.312Z,100071.55
2018-04-10T01:46:55.207Z,100074.37
2018-04-10T01:49:23.909Z,100067.59
2018-04-10T01:51:54.019Z,100074.30
2018-04-10T01:54:22.536Z,100074.06
2018-04-10T01:56:50.809Z,100082.89
2018-04-10T01:59:19.365Z,100086.61
2018-04-10T02:01:48.025Z,100084.20
2018-04-10T02:04:16.485Z,100091.55
2018-04-10T02:06:45.006Z,100090.50
2018-04-10T02:09:14.330Z,100081.93
2018-04-10T02:11:42.950Z,100079.90
2018-04-10T02:14:11.303Z,100072.78
2018-04-10T02:16:40.021Z,100075.78
2018-04-10T02:19:08.985Z,100074.20
2018-04-10T02:21:37.369Z,100073.19
2018-04-10T02:24:06.069Z,100075.92
2018-04-10T02:26:35.068Z,100069.60
2018-04-10T02:29:03.721Z,100073.48
2018-04-10T02:31:32.317Z,100073.42
2018-04-10T02:34:01.550Z,100070.75
2018-04-10T02:36:33.171Z,100071.16
2018-04-10T02:39:02.046Z,100068.97
2018-04-10T02:41:31.165Z,100066.46
2018-04-10T02:44:00.371Z,100066.77
2018-04-10T02:46:29.888Z,100066.95
2018-04-10T02:48:59.364Z,100061.11
2018-04-10T02:51:28.435Z,100062.66
2018-04-10T02:53:57.649Z,100060.88
2018-04-10T02:56:26.830Z,100061.84
2018-04-10T02:58:56.366Z,100058.91
2018-04-10T03:01:25.261Z,100060.08
2018-04-10T03:03:54.165Z,100062.80
2018-04-10T03:06:23.091Z,100063.80
2018-04-10T03:08:52.073Z,100068.09
2018-04-10T03:11:21.433Z,100055.13
2018-04-10T03:13:51.166Z,100064.58
2018-04-10T03:16:19.969Z,100059.41
2018-04-10T03:18:48.739Z,100068.31
2018-04-10T03:21:17.318Z,100060.47
2018-04-10T03:23:46.275Z,100049.94
2018-04-10T03:26:15.270Z,100063.20
2018-04-10T03:28:44.881Z,100060.13
2018-04-10T03:31:13.823Z,100062.44
2018-04-10T03:33:43.046Z,100064.53
2018-04-10T03:36:12.107Z,100060.41
2018-04-10T03:38:41.035Z,100059.28
2018-04-10T03:41:10.111Z,100053.97
2018-04-10T03:43:38.614Z,100058.50
2018-04-10T03:46:07.610Z,100048.47
2018-04-10T03:48:36.778Z,100048.47
2018-04-10T03:51:05.383Z,100040.13
2018-04-10T03:53:33.742Z,100045.47
2018-04-10T03:56:02.595Z,100049.94
2018-04-10T03:58:31.370Z,100041.09
2018-04-10T04:03:55.874Z,100043.06
2018-04-10T04:06:24.272Z,100043.44
2018-04-10T04:08:52.951Z,100045.78
2018-04-10T04:11:21.535Z,100044.97
2018-04-10T04:13:50.222Z,100046.03
2018-04-10T04:16:27.605Z,100046.34
2018-04-10T04:21:10.376Z,100039.72
2018-04-10T04:23:38.726Z,100039.05
2018-04-10T04:26:07.320Z,100037.19
2018-04-10T04:28:36.143Z,100042.99
2018-04-10T04:31:04.654Z,100047.16
2018-04-10T04:33:33.458Z,100048.27
2018-04-10T04:36:02.437Z,100044.30
2018-04-10T04:38:31.737Z,100042.67
2018-04-10T04:41:00.635Z,100048.62
2018-04-10T04:43:29.085Z,100057.44
2018-04-10T04:45:57.829Z,100057.91
2018-04-10T04:48:26.605Z,100057.34
2018-04-10T04:50:55.757Z,100064.78
2018-04-10T04:53:24.703Z,100060.34
2018-04-10T04:55:53.632Z,100061.63
2018-04-10T04:58:22.924Z,100064.82
2018-04-10T05:00:51.770Z,100057.75
2018-04-10T05:03:21.805Z,100065.07
2018-04-10T05:05:51.630Z,100058.75
2018-04-10T05:08:22.443Z,100049.12
2018-04-10T05:10:51.314Z,100058.19
2018-04-10T05:13:20.027Z,100059.67
2018-04-10T05:15:50.288Z,100057.97
2018-04-10T05:18:20.599Z,100059.80
2018-04-10T05:20:51.485Z,100054.39
2018-04-10T05:23:22.726Z,100057.40
2018-04-10T05:25:52.980Z,100053.77
2018-04-10T05:28:22.870Z,100062.80
2018-04-10T05:30:51.605Z,100069.76
2018-04-10T05:33:21.397Z,100073.41
2018-04-10T05:35:50.429Z,100076.66
2018-04-10T05:38:19.473Z,100082.80
2018-04-10T05:40:48.641Z,100083.52
2018-04-10T05:43:19.773Z,100074.97
2018-04-10T05:45:49.641Z,100078.30
2018-04-10T05:48:18.800Z,100073.48
2018-04-10T05:50:48.157Z,100080.20
2018-04-10T05:53:16.642Z,100084.16
2018-04-10T05:55:45.635Z,100079.25
2018-04-10T05:58:14.617Z,100091.49
2018-04-10T06:00:43.717Z,100083.12
2018-04-10T06:03:12.367Z,100093.48
2018-04-10T06:05:40.750Z,100076.78
2018-04-10T06:08:10.300Z,100091.42
2018-04-10T06:10:39.357Z,100081.41
2018-04-10T06:13:07.663Z,100081.17
2018-04-10T06:15:36.702Z,100078.03
2018-04-10T06:18:05.747Z,100067.05
2018-04-10T06:20:34.285Z,100075.27
2018-04-10T06:23:03.374Z,100081.14
2018-04-10T06:25:32.346Z,100086.20
2018-04-10T06:28:00.885Z,100091.03
2018-04-10T06:30:29.614Z,100094.91
2018-04-10T06:32:58.626Z,100087.97
2018-04-10T06:35:27.114Z,100089.34
2018-04-10T06:37:56.146Z,100092.80
2018-04-10T06:40:24.762Z,100080.94
2018-04-10T06:42:53.061Z,100086.65
2018-04-10T06:45:21.480Z,100086.11
2018-04-10T06:47:49.993Z,100077.09
2018-04-10T06:50:18.680Z,100080.64
2018-04-10T06:52:47.030Z,100080.44
2018-04-10T06:55:16.010Z,100074.30
2018-04-10T06:57:44.653Z,100070.77
2018-04-10T07:00:13.441Z,100076.53
2018-04-10T07:02:42.406Z,100087.72
2018-04-10T07:05:11.277Z,100091.79
2018-04-10T07:07:39.987Z,100093.52
2018-04-10T07:10:08.563Z,100094.11
2018-04-10T07:12:36.978Z,100090.73
2018-04-10T07:15:05.807Z,100083.17
2018-04-10T07:17:34.594Z,100094.88
2018-04-10T07:20:03.114Z,100103.84
2018-04-10T07:22:31.584Z,100106.97
2018-04-10T07:25:00.082Z,100094.07
2018-04-10T07:27:28.713Z,100105.30
2018-04-10T07:29:57.590Z,100090.41
2018-04-10T07:32:26.543Z,100093.89
2018-04-10T07:34:55.423Z,100105.61
2018-04-10T07:37:23.867Z,100095.34
2018-04-10T07:39:52.545Z,100098.63
2018-04-10T07:42:20.971Z,100097.80
2018-04-10T07:44:49.294Z,100098.94
2018-04-10T07:47:17.618Z,100096.02
2018-04-10T07:49:45.961Z,100106.20
2018-04-10T07:52:14.674Z,100097.87
2018-04-10T07:54:43.204Z,100104.73
2018-04-10T07:57:11.958Z,100103.23
2018-04-10T07:59:40.569Z,100104.11
2018-04-10T08:02:09.262Z,100109.38
2018-04-10T08:04:38.463Z,100110.90
2018-04-10T08:07:07.073Z,100104.52
2018-04-10T08:09:35.679Z,100104.82
2018-04-10T08:12:04.519Z,100101.57
2018-04-10T08:14:33.351Z,100101.32
2018-04-10T08:17:02.204Z,100107.25
2018-04-10T08:19:30.851Z,100109.23
2018-04-10T08:21:59.626Z,100110.39
2018-04-10T08:24:28.602Z,100111.19
2018-04-10T08:26:57.530Z,100112.55
2018-04-10T08:29:25.778Z,100109.30
2018-04-10T08:31:54.268Z,100109.26
2018-04-10T08:34:22.824Z,100115.63
2018-04-10T08:36:51.166Z,100112.39
2018-04-10T08:39:19.775Z,100112.72
2018-04-10T08:41:48.065Z,100114.14
2018-04-10T08:44:16.618Z,100109.75
2018-04-10T08:46:45.658Z,100111.95
2018-04-10T08:49:14.066Z,100114.80
2018-04-10T08:51:42.521Z,100117.22
2018-04-10T08:54:11.266Z,100118.81
2018-04-10T08:56:39.970Z,100114.91
2018-04-10T08:59:10.592Z,100124.26
2018-04-10T09:01:39.736Z,100129.53
2018-04-10T09:04:08.462Z,100131.69
2018-04-10T09:06:37.240Z,100128.17
2018-04-10T09:09:06.975Z,100125.16
2018-04-10T09:11:35.345Z,100131.56
2018-04-10T09:14:04.342Z,100129.00
2018-04-10T09:16:32.682Z,100131.79
2018-04-10T09:19:01.345Z,100127.43
2018-04-10T09:21:29.740Z,100128.77
2018-04-10T09:23:58.435Z,100126.29
2018-04-10T09:26:27.174Z,100126.40
2018-04-10T09:28:55.765Z,100125.28
2018-04-10T09:31:24.346Z,100133.09
2018-04-10T09:33:53.293Z,100135.48
2018-04-10T09:36:23.153Z,100128.78
2018-04-10T09:38:51.694Z,100135.80
2018-04-10T09:41:20.239Z,100133.72
2018-04-10T09:43:48.831Z,100130.42
2018-04-10T09:46:17.778Z,100133.03
2018-04-10T09:48:46.440Z,100140.38
2018-04-10T09:51:14.784Z,100140.54
2018-04-10T09:53:43.393Z,100143.75
2018-04-10T09:56:12.039Z,100148.30
2018-04-10T09:58:40.738Z,100144.89
2018-04-10T10:01:09.181Z,100150.82
2018-04-10T10:03:37.974Z,100154.08
2018-04-10T10:06:06.310Z,100151.51
2018-04-10T10:08:35.369Z,100153.41
2018-04-10T10:11:03.862Z,100149.05
2018-04-10T10:13:32.507Z,100157.03
2018-04-10T10:16:00.863Z,100148.87
2018-04-10T10:18:29.233Z,100153.28
2018-04-10T10:20:59.238Z,100154.67
2018-04-10T10:23:28.127Z,100147.18
2018-04-10T10:25:56.644Z,100149.46
2018-04-10T10:28:25.521Z,100152.98
2018-04-10T10:30:53.996Z,100151.95
2018-04-10T10:33:22.395Z,100157.73
2018-04-10T10:35:51.154Z,100160.05
2018-04-10T10:38:19.918Z,100156.38
2018-04-10T10:40:48.654Z,100155.28
2018-04-10T10:43:17.172Z,100155.27
2018-04-10T10:45:45.971Z,100154.32
2018-04-10T10:48:14.528Z,100151.16
2018-04-10T10:50:43.015Z,100148.70
2018-04-10T10:53:11.568Z,100147.59
2018-04-10T10:55:40.321Z,100161.00
2018-04-10T10:58:08.878Z,100158.38
2018-04-10T11:00:37.431Z,100158.17
2018-04-10T11:03:07.042Z,100158.95
2018-04-10T11:05:35.337Z,100158.80
2018-04-10T11:08:03.854Z,100154.66
2018-04-10T11:10:35.605Z,100151.52
2018-04-10T11:13:04.119Z,100151.24
2018-04-10T11:15:32.489Z,100153.49
2018-04-10T11:18:01.278Z,100150.75
2018-04-10T11:20:29.998Z,100147.47
2018-04-10T11:22:58.659Z,100141.22
2018-04-10T11:25:27.026Z,100144.02
2018-04-10T11:27:55.742Z,100146.21
2018-04-10T11:30:24.218Z,100142.93
2018-04-10T11:32:53.281Z,100143.23
2018-04-10T11:35:21.826Z,100147.84
2018-04-10T11:37:50.641Z,100141.93
2018-04-10T11:40:19.055Z,100143.08
2018-04-10T11:42:47.842Z,100140.61
2018-04-10T11:45:16.634Z,100134.12
2018-04-10T11:47:45.425Z,100138.58
2018-04-10T11:50:13.802Z,100132.27
2018-04-10T11:52:42.227Z,100140.73
2018-04-10T11:55:10.879Z,100129.72
2018-04-10T11:57:39.495Z,100126.61
2018-04-10T12:00:08.279Z,100125.91
2018-04-10T12:02:37.150Z,100126.28
2018-04-10T12:05:06.078Z,100127.84
2018-04-10T12:07:34.770Z,100123.27
2018-04-10T12:10:03.661Z,100136.06
2018-04-10T12:12:32.566Z,100135.19
2018-04-10T12:15:01.437Z,100138.80
2018-04-10T12:17:30.198Z,100136.94
2018-04-10T12:19:58.835Z,100143.17
2018-04-10T12:22:27.663Z,100140.06
2018-04-10T12:24:56.016Z,100144.55
2018-04-10T12:27:24.807Z,100146.70
2018-04-10T12:29:53.321Z,100141.14
2018-04-10T12:32:22.101Z,100141.09
2018-04-10T12:34:50.425Z,100138.17
2018-04-10T12:37:19.396Z,100137.22
2018-04-10T12:39:48.241Z,100127.27
2018-04-10T12:42:16.733Z,100135.12
2018-04-10T12:44:45.254Z,100118.95
2018-04-10T12:47:14.004Z,100120.09
2018-04-10T12:49:42.261Z,100121.34
2018-04-10T12:52:10.756Z,100121.87
2018-04-10T12:54:39.385Z,100119.85
2018-04-10T12:57:07.709Z,100118.73
2018-04-10T12:59:36.083Z,100114.98
2018-04-10T13:02:04.550Z,100119.77
2018-04-10T13:04:33.506Z,100116.57
2018-04-10T13:07:01.902Z,100124.41
2018-04-10T13:09:30.288Z,100114.44
2018-04-10T13:11:58.774Z,100116.38
2018-04-10T13:14:27.467Z,100106.24
2018-04-10T13:16:55.893Z,100120.75
2018-04-10T13:19:24.766Z,100109.02
2018-04-10T13:21:53.465Z,100115.21
2018-04-10T13:24:21.905Z,100110.72
2018-04-10T13:26:50.729Z,100121.44
2018-04-10T13:29:19.209Z,100118.20
2018-04-10T13:31:47.662Z,100118.95
2018-04-10T13:34:16.028Z,100108.90
2018-04-10T13:36:44.359Z,100109.05
2018-04-10T13:39:13.090Z,100112.37
2018-04-10T13:41:41.600Z,100120.02
2018-04-10T13:44:10.866Z,100107.03
2018-04-10T13:46:39.685Z,100110.54
2018-04-10T13:49:08.755Z,100103.68
2018-04-10T13:51:37.545Z,100104.24
2018-04-10T13:54:06.278Z,100105.19
2018-04-10T13:56:34.989Z,100101.86
2018-04-10T13:59:03.732Z,100104.19
2018-04-10T14:01:32.153Z,100101.25
2018-04-10T14:04:00.519Z,100109.57
2018-04-10T14:06:28.854Z,100094.33
2018-04-10T14:08:57.150Z,100097.39
2018-04-10T14:11:25.449Z,100099.39
2018-04-10T14:13:54.521Z,100094.14
2018-04-10T14:16:23.254Z,100094.27
2018-04-10T14:20:06.046Z,100093.53
2018-04-10T14:22:34.369Z,100078.47
2018-04-10T14:25:02.877Z,100083.77
2018-04-10T14:27:31.630Z,100072.91
2018-04-10T14:30:00.707Z,100068.59
2018-04-10T14:32:29.376Z,100064.86
2018-04-10T14:34:58.118Z,100062.50
2018-04-10T14:37:26.674Z,100059.91
2018-04-10T14:39:55.006Z,100063.30
2018-04-10T14:42:23.888Z,100065.16
2018-04-10T14:44:53.026Z,100059.77
2018-04-10T14:47:21.799Z,100051.12
2018-04-10T14:49:50.226Z,100054.72
2018-04-10T14:52:18.558Z,100057.83
2018-04-10T14:54:47.181Z,100045.47
2018-04-10T14:57:15.693Z,100041.55
2018-04-10T14:59:44.382Z,100052.23
2018-04-10T15:02:13.037Z,100047.53
2018-04-10T15:04:41.517Z,100046.33
2018-04-10T15:07:09.913Z,100046.95
2018-04-10T15:09:38.682Z,100052.20
2018-04-10T15:12:07.317Z,100038.61
2018-04-10T15:14:36.436Z,100041.80
2018-04-10T15:17:05.267Z,100040.50
2018-04-10T15:19:33.816Z,100037.70
2018-04-10T15:22:02.132Z,100033.13
2018-04-10T15:24:30.750Z,100032.77
2018-04-10T15:26:59.514Z,100043.66
2018-04-10T15:29:27.774Z,100042.41
2018-04-10T15:31:56.533Z,100042.52
2018-04-10T15:34:25.286Z,100035.12
2018-04-10T15:36:53.781Z,100039.28
2018-04-10T15:39:22.317Z,100036.52
2018-04-10T15:41:51.080Z,100036.36
2018-04-10T15:44:20.225Z,100037.97
2018-04-10T15:46:48.594Z,100036.59
2018-04-10T15:49:16.998Z,100036.86
2018-04-10T15:51:45.374Z,100036.07
2018-04-10T15:54:14.213Z,100033.67
2018-04-10T15:56:42.782Z,100038.27
2018-04-10T15:59:12.599Z,100037.05
2018-04-10T16:01:41.142Z,100039.05
2018-04-10T16:04:11.442Z,100039.06
2018-04-10T16:06:41.875Z,100039.25
2018-04-10T16:09:10.428Z,100037.66
2018-04-10T16:11:38.778Z,100048.65
2018-04-10T16:14:07.089Z,100047.67
2018-04-10T16:16:35.896Z,100046.28
2018-04-10T16:19:04.759Z,100051.48
2018-04-10T16:21:33.418Z,100044.84
2018-04-10T16:24:02.064Z,100049.28
2018-04-10T16:26:30.474Z,100042.87
2018-04-10T16:28:58.979Z,100051.26
2018-04-10T16:31:27.823Z,100054.86
2018-04-10T16:33:56.586Z,100052.47
2018-04-10T16:36:25.042Z,100054.86
2018-04-10T16:38:53.561Z,100063.05
2018-04-10T16:41:22.009Z,100060.46
2018-04-10T16:43:50.986Z,100062.25
2018-04-10T16:46:19.873Z,100065.23
2018-04-10T16:48:48.173Z,100063.21
2018-04-10T16:51:16.956Z,100063.86
2018-04-10T16:53:45.989Z,100076.24
2018-04-10T16:56:14.769Z,100063.41
2018-04-10T16:58:43.062Z,100076.32
2018-04-10T17:01:11.560Z,100077.07
2018-04-10T17:03:40.172Z,100079.61
2018-04-10T17:06:09.035Z,100076.20
2018-04-10T17:08:37.357Z,100080.36
2018-04-10T17:11:05.775Z,100077.94
2018-04-10T17:13:34.242Z,100083.70
2018-04-10T17:16:03.055Z,100088.64
2018-04-10T17:18:31.952Z,100097.52
2018-04-10T17:21:00.474Z,100099.84
2018-04-10T17:23:30.329Z,100093.64
2018-04-10T17:25:59.898Z,100103.69
2018-04-10T17:28:28.364Z,100107.85
2018-04-10T17:30:58.612Z,100109.00
2018-04-10T17:33:27.096Z,100110.60
2018-04-10T17:35:55.874Z,100115.51
2018-04-10T17:38:26.015Z,100114.89
2018-04-10T17:40:55.891Z,100116.97
2018-04-10T17:43:25.617Z,100119.36
2018-04-10T17:45:54.733Z,100120.62
2018-04-10T17:48:23.581Z,100121.03
2018-04-10T17:50:53.286Z,100123.20
2018-04-10T17:53:23.707Z,100122.89
2018-04-10T17:55:52.714Z,100125.90
2018-04-10T17:58:21.435Z,100132.75
2018-04-10T18:00:50.773Z,100142.81
2018-04-10T18:03:19.541Z,100145.98
2018-04-10T18:05:48.407Z,100153.81
2018-04-10T18:08:17.018Z,100161.64
2018-04-10T18:10:45.733Z,100168.36
2018-04-10T18:13:14.470Z,100174.30
2018-04-10T18:15:43.504Z,100177.27
2018-04-10T18:18:12.821Z,100191.06
2018-04-10T18:20:41.174Z,100184.89
2018-04-10T18:23:09.713Z,100198.03
2018-04-10T18:25:38.737Z,100193.41
2018-04-10T18:28:07.056Z,100196.08
2018-04-10T18:30:35.482Z,100204.44
2018-04-10T18:33:04.138Z,100200.02
2018-04-10T18:35:32.699Z,100208.03
2018-04-10T18:38:01.118Z,100205.19
2018-04-10T18:40:29.607Z,100225.00
2018-04-10T18:42:57.923Z,100219.98
2018-04-10T18:45:26.937Z,100221.73
2018-04-10T18:47:55.339Z,100227.28
2018-04-10T18:50:23.945Z,100230.33
2018-04-10T18:52:52.318Z,100235.64
2018-04-10T18:55:21.149Z,100243.14
2018-04-10T18:57:49.578Z,100247.39
2018-04-10T19:00:18.122Z,100246.45
2018-04-10T19:02:46.788Z,100249.48
2018-04-10T19:05:15.705Z,100248.92
2018-04-10T19:07:46.914Z,100261.03
2018-04-10T19:10:16.185Z,100270.16
2018-04-10T19:12:45.010Z,100269.94
2018-04-10T19:15:13.601Z,100274.57
2018-04-10T19:17:41.893Z,100274.91
2018-04-10T19:20:10.641Z,100285.77
2018-04-10T19:22:39.062Z,100286.77
2018-04-10T19:25:07.886Z,100293.03
2018-04-10T19:27:36.218Z,100289.00
2018-04-10T19:30:07.331Z,100297.89
2018-04-10T19:32:37.015Z,100300.06
2018-04-10T19:35:06.246Z,100304.12
2018-04-10T19:37:34.692Z,100305.91
2018-04-10T19:40:03.056Z,100316.38
2018-04-10T19:42:31.966Z,100315.69
2018-04-10T19:45:01.010Z,100321.48
2018-04-10T19:47:29.929Z,100321.62
2018-04-10T19:49:58.591Z,100318.89
2018-04-10T19:52:27.679Z,100325.03
2018-04-10T19:54:57.170Z,100325.81
2018-04-10T19:57:25.706Z,100325.75
2018-04-10T19:59:54.339Z,100328.77
2018-04-10T20:02:22.973Z,100331.27
2018-04-10T20:04:51.585Z,100329.16
2018-04-10T20:07:20.387Z,100325.28
2018-04-10T20:09:49.614Z,100332.98
2018-04-10T20:12:18.867Z,100338.70
2018-04-10T20:14:47.803Z,100338.20
2018-04-10T20:17:16.330Z,100342.03
2018-04-10T20:19:44.966Z,100344.44
2018-04-10T20:22:14.080Z,100346.11
2018-04-10T20:27:10.262Z,100346.23
2018-04-10T20:29:38.921Z,100343.09
2018-04-10T20:32:07.566Z,100345.37
2018-04-10T20:34:36.346Z,100345.37
2018-04-10T20:37:05.281Z,100346.83
2018-04-10T20:39:34.062Z,100346.05
2018-04-10T20:42:02.588Z,100344.34
2018-04-10T20:44:31.391Z,100348.14
2018-04-10T20:47:00.815Z,100352.50
2018-04-10T20:49:29.552Z,100345.91
2018-04-10T20:52:00.262Z,100346.73
2018-04-10T20:54:29.225Z,100351.03
2018-04-10T20:56:58.521Z,100364.63
2018-04-10T20:59:27.570Z,100371.44
